This is the latest recevied weather packets stored in our database for station/object S56WDN-10. If no packets are shown the sender has not sent any weather packets the latest 1 day(s).
| Time | Temp. | Humidity | Pressure | Rain* | Wind** | Luminosity | Snow |
|---|---|---|---|---|---|---|---|
| 1778081214 | 16.67° C | 74% | 1010.4 hPa | 0 mm | - | - | - |
| 1778074915 | 17.78° C | 66% | 1010.4 hPa | 0 mm | - | - | - |
| 1778068615 | 18.33° C | 64% | 1011.1 hPa | 0 mm | - | - | - |
| 1778068015 | 18.89° C | 62% | 1011.1 hPa | 0 mm | - | - | - |
| 1778067715 | 18.89° C | 62% | 1011.1 hPa | 0 mm | - | - | - |
| 1778067415 | 18.89° C | 62% | 1011 hPa | 0 mm | - | - | - |
| 1778067115 | 18.89° C | 62% | 1011.1 hPa | 0 mm | - | - | - |
| 1778066815 | 18.89° C | 62% | 1011.1 hPa | 0 mm | - | - | - |
| 1778066515 | 18.89° C | 62% | 1011.1 hPa | 0 mm | - | - | - |
| 1778066215 | 18.89° C | 62% | 1011.2 hPa | 0 mm | - | - | - |
| 1778065915 | 18.89° C | 62% | 1011.2 hPa | 0 mm | - | - | - |
| 1778065615 | 19.44° C | 61% | 1011.1 hPa | 0 mm | - | - | - |
| 1778065315 | 19.44° C | 62% | 1011.3 hPa | 0 mm | - | - | - |
| 1778065015 | 19.44° C | 61% | 1011.4 hPa | 0 mm | - | - | - |
| 1778064715 | 19.44° C | 61% | 1011.5 hPa | 0 mm | - | - | - |
| 1778064415 | 20° C | 61% | 1011.5 hPa | 0 mm | - | - | - |
| 1778064115 | 19.44° C | 62% | 1011.3 hPa | 0 mm | - | - | - |
| 1778063815 | 19.44° C | 63% | 1011.4 hPa | 0 mm | - | - | - |
| 1778063515 | 19.44° C | 63% | 1011.5 hPa | 0 mm | - | - | - |
| 1778063215 | 19.44° C | 63% | 1011.5 hPa | 0 mm | - | - | - |
| 1778062915 | 19.44° C | 62% | 1011.6 hPa | 0 mm | - | - | - |
| 1778062615 | 19.44° C | 68% | 1011.7 hPa | 0 mm | - | - | - |
| 1778062315 | 18.89° C | 68% | 1011.7 hPa | 0 mm | - | - | - |
| 1778062015 | 18.33° C | 68% | 1011.7 hPa | 0 mm | - | - | - |
| 1778061715 | 17.78° C | 70% | 1011.8 hPa | 0 mm | - | - | - |
* Rain latest hour (hover to see other rain measurements)
** Current wind speed in m/s (hover to see current wind gust speed)